createdAt,value
2023-01-03T00:01:31.267Z,5.40
2023-01-03T00:04:04.274Z,5.70
2023-01-03T00:06:39.337Z,5.70
2023-01-03T00:09:16.172Z,5.70
2023-01-03T00:12:11.681Z,6.30
2023-01-03T00:14:44.801Z,6.10
2023-01-03T00:17:19.116Z,5.80
2023-01-03T00:19:51.866Z,5.50
2023-01-03T00:22:25.010Z,5.50
2023-01-03T00:24:57.129Z,5.50
2023-01-03T00:27:37.742Z,5.00
2023-01-03T00:30:10.456Z,5.60
2023-01-03T00:32:40.749Z,5.40
2023-01-03T00:35:11.436Z,6.00
2023-01-03T00:37:43.380Z,5.70
2023-01-03T00:40:16.344Z,5.40
2023-01-03T00:43:08.257Z,5.20
2023-01-03T00:45:42.443Z,5.90
2023-01-03T00:48:15.314Z,5.30
2023-01-03T00:50:47.949Z,5.60
2023-01-03T00:53:23.605Z,5.60
2023-01-03T00:56:01.652Z,5.80
2023-01-03T00:58:34.704Z,5.30
2023-01-03T01:01:08.718Z,5.30
2023-01-03T01:03:42.356Z,5.40
2023-01-03T01:06:18.581Z,5.70
2023-01-03T01:08:50.147Z,5.70
2023-01-03T01:11:23.951Z,5.50
2023-01-03T01:13:54.737Z,5.60
2023-01-03T01:16:28.051Z,5.90
2023-01-03T01:19:00.300Z,5.40
2023-01-03T01:21:36.690Z,5.50
2023-01-03T01:24:12.776Z,5.50
2023-01-03T01:26:49.861Z,5.70
2023-01-03T01:29:26.827Z,5.60
2023-01-03T01:31:58.762Z,5.20
2023-01-03T01:34:32.458Z,5.20
2023-01-03T01:37:04.782Z,5.60
2023-01-03T01:39:40.332Z,5.20
2023-01-03T01:42:35.365Z,5.50
2023-01-03T01:45:09.584Z,5.20
2023-01-03T01:47:49.025Z,5.70
2023-01-03T01:50:24.841Z,4.80
2023-01-03T01:53:00.327Z,5.00
2023-01-03T01:55:40.843Z,5.30
2023-01-03T01:58:16.843Z,5.50
2023-01-03T02:00:54.388Z,5.10
2023-01-03T02:03:28.761Z,5.00
2023-01-03T02:06:05.271Z,5.00
2023-01-03T02:08:38.469Z,5.10
2023-01-03T02:11:32.488Z,5.00
2023-01-03T02:14:19.855Z,4.70
2023-01-03T02:17:02.460Z,4.90
2023-01-03T02:20:20.121Z,5.10
2023-01-03T02:23:28.023Z,4.90
2023-01-03T02:26:35.356Z,4.50
2023-01-03T02:30:08.189Z,4.70
2023-01-03T02:32:52.580Z,5.00
2023-01-03T02:35:32.048Z,5.00
2023-01-03T02:38:15.417Z,4.70
2023-01-03T02:40:54.674Z,4.40
2023-01-03T02:43:35.135Z,4.90
2023-01-03T02:46:13.547Z,5.00
2023-01-03T02:48:55.494Z,4.70
2023-01-03T02:51:37.757Z,4.90
2023-01-03T02:54:15.855Z,4.80
2023-01-03T02:56:55.538Z,4.50
2023-01-03T02:59:37.660Z,4.60
2023-01-03T03:02:11.963Z,4.40
2023-01-03T03:04:47.761Z,4.50
2023-01-03T03:07:25.354Z,4.70
2023-01-03T03:10:20.197Z,4.70
2023-01-03T03:13:16.680Z,4.70
2023-01-03T03:15:58.113Z,4.30
2023-01-03T03:18:36.216Z,4.50
2023-01-03T03:21:28.897Z,4.40
2023-01-03T03:24:30.701Z,4.50
2023-01-03T03:27:29.371Z,4.70
2023-01-03T03:30:10.590Z,4.50
2023-01-03T03:32:45.172Z,4.80
2023-01-03T03:35:20.882Z,4.50
2023-01-03T03:37:56.666Z,4.40
2023-01-03T03:40:53.154Z,4.70
2023-01-03T03:43:49.314Z,4.30
2023-01-03T03:46:35.886Z,4.70
2023-01-03T03:49:32.343Z,4.20
2023-01-03T03:52:07.636Z,4.50
2023-01-03T03:54:43.229Z,4.30
2023-01-03T03:57:27.074Z,4.00
2023-01-03T04:00:04.919Z,4.20
2023-01-03T04:02:38.431Z,3.90
2023-01-03T04:05:13.006Z,4.30
2023-01-03T04:07:49.075Z,4.10
2023-01-03T04:10:22.935Z,4.40
2023-01-03T04:12:56.380Z,4.00
2023-01-03T04:15:31.180Z,4.20
2023-01-03T04:18:02.026Z,4.00
2023-01-03T04:20:33.937Z,4.20
2023-01-03T04:23:10.620Z,4.00
2023-01-03T04:25:43.455Z,4.10
2023-01-03T04:28:17.690Z,3.60
2023-01-03T04:30:55.091Z,3.90
2023-01-03T04:33:32.051Z,3.80
2023-01-03T04:36:05.390Z,3.60
2023-01-03T04:38:35.543Z,3.50
2023-01-03T04:41:09.837Z,3.50
2023-01-03T04:44:05.400Z,3.10
2023-01-03T04:46:40.999Z,3.20
2023-01-03T04:49:18.362Z,3.40
2023-01-03T04:51:50.909Z,3.20
2023-01-03T04:54:23.236Z,3.50
2023-01-03T04:56:53.203Z,3.30
2023-01-03T04:59:26.521Z,3.30
2023-01-03T05:02:02.240Z,3.20
2023-01-03T05:04:35.138Z,3.10
2023-01-03T05:07:05.517Z,3.10
2023-01-03T05:09:42.290Z,3.20
2023-01-03T05:12:15.036Z,3.10
2023-01-03T05:14:47.882Z,2.70
2023-01-03T05:17:21.001Z,3.10
2023-01-03T05:20:09.339Z,2.90
2023-01-03T05:23:02.895Z,2.60
2023-01-03T05:25:51.059Z,2.70
2023-01-03T05:28:25.175Z,2.60
2023-01-03T05:30:54.783Z,2.40
2023-01-03T05:33:30.019Z,2.80
2023-01-03T05:36:01.713Z,2.50
2023-01-03T05:38:31.703Z,2.60
2023-01-03T05:41:05.036Z,2.30
2023-01-03T05:43:40.222Z,2.40
2023-01-03T05:46:10.598Z,2.60
2023-01-03T05:48:48.538Z,2.20
2023-01-03T05:51:31.679Z,2.40
2023-01-03T05:54:07.529Z,2.30
2023-01-03T05:56:42.216Z,2.00
2023-01-03T05:59:18.649Z,2.50
2023-01-03T06:01:48.760Z,2.30
2023-01-03T06:04:25.814Z,2.50
2023-01-03T06:06:58.419Z,2.60
2023-01-03T06:09:31.550Z,2.30
2023-01-03T06:12:01.579Z,2.30
2023-01-03T06:14:34.055Z,2.40
2023-01-03T06:17:22.542Z,2.40
2023-01-03T06:19:55.128Z,1.90
2023-01-03T06:22:28.227Z,2.10
2023-01-03T06:24:58.142Z,2.00
2023-01-03T06:27:31.133Z,2.20
2023-01-03T06:30:04.550Z,1.80
2023-01-03T06:32:34.755Z,1.70
2023-01-03T06:35:08.437Z,2.30
2023-01-03T06:37:41.138Z,1.90
2023-01-03T06:40:12.833Z,1.90
2023-01-03T06:42:45.993Z,1.70
2023-01-03T06:45:35.464Z,2.00
2023-01-03T06:48:33.848Z,2.00
2023-01-03T06:51:21.779Z,1.70
2023-01-03T06:53:51.958Z,1.70
2023-01-03T06:56:22.580Z,1.70
2023-01-03T06:58:52.842Z,1.50
2023-01-03T07:01:25.493Z,1.90
2023-01-03T07:03:55.790Z,1.90
2023-01-03T07:06:27.720Z,1.60
2023-01-03T07:09:02.905Z,1.70
2023-01-03T07:11:37.637Z,1.50
2023-01-03T07:14:10.884Z,1.90
2023-01-03T07:19:16.043Z,1.50
2023-01-03T07:21:46.697Z,1.60
2023-01-03T07:24:18.652Z,1.60
2023-01-03T07:26:48.411Z,1.60
2023-01-03T07:29:18.897Z,1.80
2023-01-03T07:31:51.583Z,1.70
2023-01-03T07:34:26.656Z,1.70
2023-01-03T07:37:01.907Z,1.50
2023-01-03T07:39:34.582Z,1.60
2023-01-03T07:42:22.644Z,1.50
2023-01-03T07:44:55.402Z,1.80
2023-01-03T07:47:30.488Z,2.00
2023-01-03T07:50:03.177Z,1.80
2023-01-03T07:52:41.188Z,1.50
2023-01-03T07:55:16.781Z,1.90
2023-01-03T07:57:49.831Z,1.60
2023-01-03T08:00:22.215Z,1.90
2023-01-03T08:02:55.396Z,2.20
2023-01-03T08:05:31.003Z,1.40
2023-01-03T08:08:05.314Z,1.70
2023-01-03T08:10:53.451Z,1.70
2023-01-03T08:13:28.014Z,1.80
2023-01-03T08:15:58.440Z,1.60
2023-01-03T08:18:29.272Z,1.90
2023-01-03T08:21:01.451Z,1.70
2023-01-03T08:23:31.481Z,1.80
2023-01-03T08:26:07.916Z,1.80
2023-01-03T08:31:16.530Z,1.50
2023-01-03T08:33:53.837Z,1.70
2023-01-03T08:36:28.442Z,1.60
2023-01-03T08:39:07.007Z,2.10
2023-01-03T08:41:50.090Z,1.70
2023-01-03T08:44:20.357Z,1.40
2023-01-03T08:46:58.614Z,1.70
2023-01-03T08:49:34.971Z,1.80
2023-01-03T08:52:09.928Z,1.70
2023-01-03T08:54:46.820Z,1.80
2023-01-03T08:57:19.274Z,1.80
2023-01-03T08:59:49.460Z,1.50
2023-01-03T09:02:19.405Z,1.80
2023-01-03T09:04:49.543Z,1.90
2023-01-03T09:07:21.562Z,1.20
2023-01-03T09:09:53.834Z,1.50
2023-01-03T09:12:23.660Z,1.60
2023-01-03T09:14:58.427Z,1.80
2023-01-03T09:17:29.553Z,1.50
2023-01-03T09:20:04.457Z,1.60
2023-01-03T09:22:37.242Z,1.40
2023-01-03T09:25:11.106Z,1.50
2023-01-03T09:27:46.235Z,1.60
2023-01-03T09:30:17.755Z,1.50
2023-01-03T09:32:50.993Z,1.50
2023-01-03T09:35:26.431Z,1.40
2023-01-03T09:38:02.237Z,1.60
2023-01-03T09:40:40.396Z,1.40
2023-01-03T09:43:24.980Z,2.30
2023-01-03T09:45:59.313Z,2.00
2023-01-03T09:51:30.946Z,1.80
2023-01-03T09:54:26.133Z,1.70
2023-01-03T09:57:16.515Z,1.90
2023-01-03T10:00:04.834Z,1.70
2023-01-03T10:03:14.627Z,1.60
2023-01-03T10:06:11.276Z,1.70
2023-01-03T10:08:58.791Z,1.60
2023-01-03T10:11:41.585Z,1.50
2023-01-03T10:14:28.664Z,1.70
2023-01-03T10:17:12.530Z,1.90
2023-01-03T10:20:09.887Z,1.70
2023-01-03T10:22:44.607Z,1.50
2023-01-03T10:25:19.678Z,1.40
2023-01-03T10:27:59.901Z,1.70
2023-01-03T10:30:57.566Z,1.50
2023-01-03T10:33:35.917Z,1.60
2023-01-03T10:36:07.941Z,1.70
2023-01-03T10:38:44.867Z,1.30
2023-01-03T10:41:31.580Z,1.50
2023-01-03T10:44:03.226Z,1.60
2023-01-03T10:46:32.984Z,1.50
2023-01-03T10:49:29.379Z,1.20
2023-01-03T10:52:04.005Z,1.00
2023-01-03T10:54:49.163Z,1.20
2023-01-03T10:57:40.853Z,1.10
2023-01-03T11:00:32.731Z,1.10
2023-01-03T11:03:15.943Z,1.40
2023-01-03T11:05:47.594Z,1.60
2023-01-03T11:08:22.590Z,1.40
2023-01-03T11:10:56.687Z,1.30
2023-01-03T11:13:34.064Z,1.30
2023-01-03T11:16:15.073Z,1.40
2023-01-03T11:19:00.535Z,1.60
2023-01-03T11:21:42.000Z,1.40
2023-01-03T11:24:29.176Z,1.10
2023-01-03T11:27:09.258Z,1.50
2023-01-03T11:30:00.122Z,1.30
2023-01-03T11:32:46.411Z,1.10
2023-01-03T11:35:48.307Z,1.30
2023-01-03T11:38:46.153Z,1.10
2023-01-03T11:41:32.290Z,1.10
2023-01-03T11:44:35.888Z,1.20
2023-01-03T11:47:22.703Z,1.00
2023-01-03T11:50:15.716Z,1.10
2023-01-03T11:52:56.753Z,1.20
2023-01-03T11:55:51.396Z,1.30
2023-01-03T11:58:54.778Z,1.30
2023-01-03T12:01:48.711Z,1.40
2023-01-03T12:04:33.407Z,1.10
2023-01-03T12:07:46.304Z,1.10
2023-01-03T12:10:13.047Z,1.20
2023-01-03T12:13:06.460Z,0.90
2023-01-03T12:15:47.865Z,1.00
2023-01-03T12:18:32.676Z,1.20
2023-01-03T12:21:12.133Z,1.10
2023-01-03T12:23:49.554Z,1.20
2023-01-03T12:26:20.185Z,1.20
2023-01-03T12:28:56.221Z,1.10
2023-01-03T12:31:37.165Z,1.20
2023-01-03T12:34:21.841Z,1.10
2023-01-03T12:37:03.170Z,1.10
2023-01-03T12:39:43.831Z,0.90
2023-01-03T12:42:24.603Z,1.30
2023-01-03T12:45:11.567Z,1.30
2023-01-03T12:47:47.358Z,1.20
2023-01-03T12:50:23.776Z,1.10
2023-01-03T12:53:00.694Z,1.30
2023-01-03T12:55:46.589Z,1.00
2023-01-03T12:58:39.287Z,1.10
2023-01-03T13:01:17.248Z,1.20
2023-01-03T13:03:55.448Z,1.10
2023-01-03T13:06:32.614Z,1.20
2023-01-03T13:09:06.010Z,1.10
2023-01-03T13:11:42.083Z,1.00
2023-01-03T13:14:21.408Z,1.40
2023-01-03T13:16:51.741Z,0.90
2023-01-03T13:19:54.020Z,1.10
2023-01-03T13:23:00.430Z,1.20
2023-01-03T13:25:40.229Z,1.00
2023-01-03T13:28:32.744Z,1.00
2023-01-03T13:31:37.650Z,1.00
2023-01-03T13:34:31.861Z,1.00
2023-01-03T13:37:18.680Z,1.00
2023-01-03T13:40:21.922Z,1.00
2023-01-03T13:43:04.041Z,0.90
2023-01-03T13:46:20.291Z,0.80
2023-01-03T13:49:01.667Z,0.90
2023-01-03T13:51:50.907Z,1.00
2023-01-03T13:54:52.719Z,0.90
2023-01-03T13:57:53.448Z,0.80
2023-01-03T14:00:24.827Z,0.80
2023-01-03T14:03:37.478Z,0.90
2023-01-03T14:06:39.391Z,0.90
2023-01-03T14:09:44.379Z,1.00
2023-01-03T14:12:49.487Z,0.90
2023-01-03T14:15:26.388Z,0.90
2023-01-03T14:18:02.616Z,1.00
2023-01-03T14:20:35.956Z,1.00
2023-01-03T14:26:13.432Z,1.10
2023-01-03T14:28:50.120Z,1.10
2023-01-03T14:31:26.131Z,1.00
2023-01-03T14:33:59.861Z,1.20
2023-01-03T14:36:45.638Z,1.20
2023-01-03T14:42:07.390Z,1.40
2023-01-03T14:44:37.914Z,1.00
2023-01-03T14:47:17.326Z,1.10
2023-01-03T14:49:53.263Z,1.20
2023-01-03T14:52:35.201Z,1.30
2023-01-03T14:55:19.425Z,1.00
2023-01-03T14:57:53.131Z,1.30
2023-01-03T15:00:33.078Z,1.00
2023-01-03T15:03:10.975Z,1.10
2023-01-03T15:05:43.829Z,1.30
2023-01-03T15:08:29.393Z,1.10
2023-01-03T15:11:05.401Z,1.20
2023-01-03T15:16:20.705Z,1.10
2023-01-03T15:18:59.615Z,1.00
2023-01-03T15:21:39.106Z,1.40
2023-01-03T15:24:22.193Z,1.60
2023-01-03T15:26:55.770Z,1.40
2023-01-03T15:29:28.143Z,1.70
2023-01-03T15:32:01.659Z,1.50
2023-01-03T15:34:41.833Z,1.70
2023-01-03T15:37:19.294Z,1.50
2023-01-03T15:39:55.918Z,1.60
2023-01-03T15:42:56.270Z,1.70
2023-01-03T15:45:38.531Z,1.40
2023-01-03T15:48:22.116Z,1.60
2023-01-03T15:53:30.612Z,1.80
2023-01-03T15:56:05.676Z,1.70
2023-01-03T15:58:37.703Z,1.90
2023-01-03T16:01:09.450Z,1.50
2023-01-03T16:03:40.405Z,1.80
2023-01-03T16:06:12.625Z,2.00
2023-01-03T16:08:46.339Z,1.80
2023-01-03T16:11:25.531Z,1.60
2023-01-03T16:14:06.237Z,1.80
2023-01-03T16:16:38.549Z,1.90
2023-01-03T16:19:18.609Z,2.00
2023-01-03T16:22:24.597Z,1.90
2023-01-03T16:24:42.361Z,1.70
2023-01-03T16:27:16.340Z,1.60
2023-01-03T16:29:49.650Z,1.60
2023-01-03T16:35:04.611Z,1.80
2023-01-03T16:40:16.241Z,1.70
2023-01-03T16:42:48.984Z,1.80
2023-01-03T16:45:21.166Z,1.60
2023-01-03T16:47:54.437Z,2.00
2023-01-03T16:50:25.905Z,1.60
2023-01-03T16:52:58.008Z,2.00
2023-01-03T16:55:38.367Z,1.80
2023-01-03T16:58:15.080Z,1.80
2023-01-03T17:00:47.825Z,1.80
2023-01-03T17:03:18.688Z,1.50
2023-01-03T17:05:50.743Z,1.40
2023-01-03T17:08:25.108Z,1.70
2023-01-03T17:10:59.637Z,1.80
2023-01-03T17:13:33.645Z,1.50
2023-01-03T17:16:08.224Z,1.70
2023-01-03T17:18:41.726Z,1.40
2023-01-03T17:21:22.288Z,2.30
2023-01-03T17:23:54.455Z,1.90
2023-01-03T17:26:30.669Z,1.70
2023-01-03T17:29:08.323Z,1.70
2023-01-03T17:31:38.386Z,1.50
2023-01-03T17:34:23.355Z,1.90
2023-01-03T17:36:56.501Z,2.10
2023-01-03T17:39:30.200Z,1.60
2023-01-03T17:42:16.038Z,1.70
2023-01-03T17:45:05.086Z,1.70
2023-01-03T17:47:55.965Z,2.00
2023-01-03T17:50:27.488Z,2.00
2023-01-03T17:52:58.181Z,1.70
2023-01-03T17:58:33.326Z,1.90
2023-01-03T18:01:07.971Z,2.00
2023-01-03T18:03:38.904Z,2.00
2023-01-03T18:06:14.074Z,1.80
2023-01-03T18:08:44.148Z,1.80
2023-01-03T18:11:18.071Z,1.90
2023-01-03T18:13:52.024Z,2.00
2023-01-03T18:16:24.013Z,2.20
2023-01-03T18:18:56.829Z,2.10
2023-01-03T18:21:31.555Z,2.50
2023-01-03T18:24:05.460Z,2.60
2023-01-03T18:26:38.526Z,2.30
2023-01-03T18:29:15.539Z,2.30
2023-01-03T18:31:48.785Z,2.50
2023-01-03T18:34:19.545Z,2.50
2023-01-03T18:36:52.412Z,2.60
2023-01-03T18:39:28.552Z,2.80
2023-01-03T18:42:18.352Z,2.80
2023-01-03T18:44:48.264Z,2.40
2023-01-03T18:47:23.103Z,2.90
2023-01-03T18:49:55.398Z,3.30
2023-01-03T18:52:31.371Z,3.00
2023-01-03T18:55:02.579Z,2.70
2023-01-03T18:57:37.377Z,3.10
2023-01-03T19:00:19.455Z,2.70
2023-01-03T19:02:52.759Z,2.80
2023-01-03T19:05:28.308Z,2.80
2023-01-03T19:08:03.703Z,3.40
2023-01-03T19:10:34.019Z,3.40
2023-01-03T19:13:05.320Z,3.20
2023-01-03T19:15:35.557Z,3.40
2023-01-03T19:18:06.747Z,3.10
2023-01-03T19:20:40.226Z,3.40
2023-01-03T19:23:11.143Z,3.10
2023-01-03T19:25:41.282Z,3.70
2023-01-03T19:28:12.723Z,3.50
2023-01-03T19:30:46.012Z,3.40
2023-01-03T19:35:49.803Z,3.30
2023-01-03T19:38:19.714Z,3.40
2023-01-03T19:40:52.808Z,3.20
2023-01-03T19:43:25.143Z,3.10
2023-01-03T19:45:59.937Z,3.60
2023-01-03T19:51:02.822Z,3.80
2023-01-03T19:53:42.102Z,3.80
2023-01-03T19:56:23.426Z,3.50
2023-01-03T19:58:56.586Z,3.50
2023-01-03T20:02:05.985Z,3.50
2023-01-03T20:04:26.804Z,3.80
2023-01-03T20:06:57.393Z,3.40
2023-01-03T20:09:27.501Z,3.60
2023-01-03T20:11:59.942Z,3.60
2023-01-03T20:14:32.674Z,3.20
2023-01-03T20:17:09.084Z,3.20
2023-01-03T20:19:42.196Z,3.10
2023-01-03T20:22:30.187Z,3.60
2023-01-03T20:25:05.504Z,3.50
2023-01-03T20:27:42.430Z,3.60
2023-01-03T20:30:20.231Z,3.60
2023-01-03T20:32:50.175Z,3.30
2023-01-03T20:36:08.479Z,3.60
2023-01-03T20:38:16.395Z,3.80
2023-01-03T20:40:48.747Z,3.90
2023-01-03T20:43:21.723Z,3.80
2023-01-03T20:45:59.728Z,3.10
2023-01-03T20:48:32.253Z,3.30
2023-01-03T20:51:04.494Z,3.30
2023-01-03T20:53:42.881Z,3.20
2023-01-03T20:56:14.842Z,3.40
2023-01-03T20:58:52.437Z,3.20
2023-01-03T21:01:21.998Z,3.30
2023-01-03T21:03:51.782Z,3.30
2023-01-03T21:06:23.344Z,3.60
2023-01-03T21:08:57.203Z,3.40
2023-01-03T21:11:29.791Z,3.50
2023-01-03T21:14:01.507Z,3.10
2023-01-03T21:16:35.741Z,3.20
2023-01-03T21:19:11.751Z,3.30
2023-01-03T21:21:46.059Z,3.90
2023-01-03T21:24:18.854Z,3.80
2023-01-03T21:26:52.254Z,4.00
2023-01-03T21:29:31.987Z,3.60
2023-01-03T21:32:01.893Z,3.30
2023-01-03T21:34:41.143Z,3.60
2023-01-03T21:37:18.631Z,3.30
2023-01-03T21:39:50.934Z,3.60
2023-01-03T21:42:41.599Z,4.00
2023-01-03T21:45:17.506Z,3.50
2023-01-03T21:47:47.930Z,3.60
2023-01-03T21:50:21.123Z,4.00
2023-01-03T21:52:56.415Z,3.60
2023-01-03T21:55:30.333Z,3.70
2023-01-03T21:58:00.671Z,3.60
2023-01-03T22:00:35.903Z,3.30
2023-01-03T22:03:29.933Z,3.70
2023-01-03T22:06:11.429Z,3.70
2023-01-03T22:08:43.298Z,3.60
2023-01-03T22:11:18.835Z,3.30
2023-01-03T22:13:57.282Z,4.20
2023-01-03T22:16:29.830Z,3.50
2023-01-03T22:19:00.423Z,3.60
2023-01-03T22:21:34.568Z,3.70
2023-01-03T22:24:06.378Z,3.40
2023-01-03T22:26:41.060Z,3.60
2023-01-03T22:29:22.181Z,3.40
2023-01-03T22:32:00.814Z,3.80
2023-01-03T22:34:35.679Z,3.10
2023-01-03T22:37:14.309Z,3.40
2023-01-03T22:39:47.235Z,3.80
2023-01-03T22:42:21.732Z,3.60
2023-01-03T22:44:53.734Z,3.40
2023-01-03T22:47:23.793Z,3.60
2023-01-03T22:49:57.162Z,3.30
2023-01-03T22:52:29.125Z,3.80
2023-01-03T22:54:58.719Z,3.30
2023-01-03T22:57:28.351Z,3.70
2023-01-03T22:59:57.826Z,3.70
2023-01-03T23:02:30.238Z,3.60
2023-01-03T23:05:01.106Z,3.30
2023-01-03T23:07:30.376Z,3.20
2023-01-03T23:10:00.208Z,3.10
2023-01-03T23:12:47.911Z,3.40
2023-01-03T23:15:20.632Z,3.70
2023-01-03T23:17:58.863Z,3.20
2023-01-03T23:20:31.089Z,3.40
2023-01-03T23:23:02.141Z,3.80
2023-01-03T23:25:33.173Z,3.40
2023-01-03T23:28:02.931Z,3.40
2023-01-03T23:30:35.156Z,3.40
2023-01-03T23:33:05.638Z,3.10
2023-01-03T23:35:35.770Z,3.70
2023-01-03T23:38:07.674Z,3.20
2023-01-03T23:40:40.996Z,3.50
2023-01-03T23:43:11.222Z,3.30
2023-01-03T23:45:45.091Z,3.10
2023-01-03T23:48:16.634Z,3.30
2023-01-03T23:50:48.884Z,3.80
2023-01-03T23:53:19.734Z,3.30
2023-01-03T23:55:49.073Z,3.70
2023-01-03T23:58:21.466Z,3.40
